Time;durP1;ratioP1;P1;durP2;ratioP2;P2;SDS_P1;SDS_P2;PMS_P1;PMS_P2;Temp;Humidity;BMP_temperature;BMP_pressure;BME280_temperature;BME280_humidity;BME280_pressure;Samples;Min_cycle;Max_cycle;Signal;HPM_P1;HPM_P2
2021/07/09 00:01:55;;;;;;;20.30;7.15;;;;;;;21.00;100.00;100274.16;2772670;85;21039;-65
2021/07/09 00:05:58;;;;;;;17.02;7.60;;;;;;;20.88;100.00;100320.66;2772876;85;21066;-66
2021/07/09 00:10:02;;;;;;;26.40;8.83;;;;;;;20.91;100.00;100339.19;2773289;85;21550;-65
2021/07/09 00:14:10;;;;;;;26.40;8.67;;;;;;;20.73;100.00;100322.55;2773146;85;21129;-65
2021/07/09 00:18:15;;;;;;;14.28;8.80;;;;;;;20.56;100.00;100318.73;2742342;85;21051;-65
2021/07/09 00:22:20;;;;;;;17.25;8.65;;;;;;;20.59;100.00;100329.15;2773030;85;21038;-66
2021/07/09 00:26:29;;;;;;;16.80;8.13;;;;;;;20.61;100.00;100307.35;2772991;85;21082;-65
2021/07/09 00:30:35;;;;;;;14.20;7.83;;;;;;;20.54;100.00;100287.02;2772273;85;21055;-65
2021/07/09 00:34:41;;;;;;;30.55;9.80;;;;;;;20.60;100.00;100311.91;2773187;85;21058;-65
2021/07/09 00:38:45;;;;;;;17.80;8.25;;;;;;;20.59;100.00;100298.07;2772873;85;21039;-65
2021/07/09 00:42:48;;;;;;;22.95;9.48;;;;;;;20.59;100.00;100316.98;2790211;83;21066;-65
2021/07/09 00:46:52;;;;;;;33.02;10.45;;;;;;;20.62;100.00;100328.77;2791185;85;21046;-65
2021/07/09 00:51:00;;;;;;;25.60;9.88;;;;;;;20.66;100.00;100293.59;2791181;84;21030;-65
2021/07/09 00:55:07;;;;;;;27.25;10.25;;;;;;;20.72;100.00;100233.03;2791375;84;21033;-65
2021/07/09 00:59:13;;;;;;;30.20;10.75;;;;;;;20.69;100.00;100225.64;2790996;84;21484;-64
2021/07/09 01:03:15;;;;;;;18.35;10.60;;;;;;;20.71;100.00;100213.27;2791601;83;21519;-64
2021/07/09 01:07:20;;;;;;;23.83;12.35;;;;;;;20.73;100.00;100228.77;2774141;84;21050;-65
2021/07/09 01:11:27;;;;;;;23.22;10.55;;;;;;;20.87;100.00;100214.91;2791359;84;21018;-64
2021/07/09 01:21:39;;;;;;;24.15;12.85;;;;;;;20.98;100.00;100211.66;2792510;84;21030;-64
2021/07/09 01:26:16;;;;;;;27.37;13.93;;;;;;;21.06;100.00;100197.69;2792259;85;21019;-64
2021/07/09 01:30:23;;;;;;;;;;;;;;;21.18;100.00;100191.20;2794946;85;21006;-64
2021/07/09 01:34:58;;;;;;;33.75;17.37;;;;;;;21.22;100.00;100180.30;2792675;85;20117;-65
2021/07/09 01:38:59;;;;;;;41.00;17.87;;;;;;;21.28;100.00;100174.62;2792463;84;21053;-64
2021/07/09 01:43:04;;;;;;;36.55;16.77;;;;;;;21.33;100.00;100170.29;2775119;84;21011;-64
2021/07/09 01:47:44;;;;;;;32.80;13.70;;;;;;;21.42;100.00;100177.72;2774561;85;21035;-64
2021/07/09 01:51:46;;;;;;;28.47;12.25;;;;;;;21.43;100.00;100165.86;2773691;85;21083;-64
2021/07/09 01:56:26;;;;;;;28.80;14.45;;;;;;;21.33;100.00;100178.41;2774580;85;21054;-64
2021/07/09 02:00:28;;;;;;;26.35;14.18;;;;;;;21.28;100.00;100173.27;2774074;85;21075;-64
2021/07/09 02:05:11;;;;;;;30.90;14.70;;;;;;;21.24;100.00;100158.80;2774290;85;20979;-64
2021/07/09 02:09:17;;;;;;;25.40;13.53;;;;;;;21.16;100.00;100136.48;2718457;87;21074;-64
2021/07/09 02:13:23;;;;;;;25.92;14.03;;;;;;;21.09;100.00;100138.61;2718370;86;21117;-64
2021/07/09 02:17:26;;;;;;;38.17;14.10;;;;;;;21.06;100.00;100133.61;2717410;87;21528;-64
2021/07/09 02:21:28;;;;;;;35.08;13.38;;;;;;;21.03;100.00;100148.87;2717255;87;21070;-64
2021/07/09 02:25:30;;;;;;;24.87;16.17;;;;;;;20.92;100.00;100146.21;2717414;86;21054;-64
2021/07/09 02:29:34;;;;;;;30.15;15.65;;;;;;;20.81;100.00;100149.45;2717815;87;21007;-64
2021/07/09 02:33:36;;;;;;;34.90;17.55;;;;;;;20.76;100.00;100128.41;2717359;87;21066;-64
2021/07/09 02:37:44;;;;;;;30.90;20.02;;;;;;;20.77;100.00;100114.36;2719834;85;21058;-65
2021/07/09 02:41:46;;;;;;;29.12;18.60;;;;;;;20.79;100.00;100120.40;2783590;84;21042;-64
2021/07/09 02:45:51;;;;;;;30.32;19.48;;;;;;;20.82;100.00;100105.16;2791878;84;21030;-64
2021/07/09 02:49:53;;;;;;;26.23;18.33;;;;;;;20.90;100.00;100130.70;2791891;85;21049;-64
2021/07/09 02:53:56;;;;;;;36.28;21.23;;;;;;;20.90;100.00;100130.70;2802536;84;21007;-64
2021/07/09 02:57:57;;;;;;;30.62;20.97;;;;;;;20.93;100.00;100128.95;2821445;83;21090;-65
2021/07/09 03:02:01;;;;;;;31.00;18.82;;;;;;;20.95;100.00;100190.42;2791721;83;21546;-64
2021/07/09 03:06:03;;;;;;;38.50;20.92;;;;;;;20.97;100.00;100291.09;2789236;84;21019;-64
2021/07/09 03:10:08;;;;;;;35.13;22.15;;;;;;;20.96;100.00;100340.79;2789350;84;21539;-64
2021/07/09 03:14:11;;;;;;;40.40;24.92;;;;;;;20.93;100.00;100334.42;2790348;83;21090;-64
2021/07/09 03:18:18;;;;;;;42.33;20.30;;;;;;;20.90;100.00;100333.97;2789591;83;21543;-65
2021/07/09 03:22:24;;;;;;;35.60;20.55;;;;;;;20.82;100.00;100288.97;2788586;83;21015;-64
2021/07/09 03:26:28;;;;;;;33.50;19.17;;;;;;;20.74;100.00;100299.89;2790494;83;21026;-66
2021/07/09 03:30:33;;;;;;;19.02;15.63;;;;;;;20.69;100.00;100325.64;2791309;85;21107;-65
2021/07/09 03:34:37;;;;;;;31.40;18.95;;;;;;;20.64;100.00;100310.52;2790872;85;20987;-66
2021/07/09 03:38:46;;;;;;;27.90;18.98;;;;;;;20.58;100.00;100296.41;2790885;84;21364;-67
2021/07/09 03:42:53;;;;;;;22.90;15.90;;;;;;;20.57;100.00;100327.16;2790065;84;21053;-65
2021/07/09 03:47:00;;;;;;;32.73;17.20;;;;;;;20.55;100.00;100285.98;2790814;85;22530;-67
2021/07/09 03:51:07;;;;;;;22.00;16.30;;;;;;;20.56;100.00;100286.30;2790824;85;21039;-66
2021/07/09 03:55:10;;;;;;;20.05;14.07;;;;;;;20.51;100.00;100327.92;2790793;84;21042;-64
2021/07/09 03:59:19;;;;;;;21.25;14.95;;;;;;;20.48;100.00;100385.05;2797829;83;21051;-65
2021/07/09 04:03:24;;;;;;;23.35;14.60;;;;;;;20.51;100.00;100436.00;2802348;84;21034;-67
2021/07/09 04:07:29;;;;;;;27.70;13.65;;;;;;;20.51;100.00;100423.31;2789340;83;21567;-67
2021/07/09 04:11:36;;;;;;;17.95;13.35;;;;;;;20.51;100.00;100414.39;2789978;84;21022;-65
2021/07/09 04:15:40;;;;;;;15.88;10.90;;;;;;;20.53;100.00;100421.79;2789994;84;21089;-64
2021/07/09 04:19:43;;;;;;;13.98;10.78;;;;;;;20.52;100.00;100419.58;2788871;85;21547;-66
2021/07/09 04:23:49;;;;;;;13.15;9.45;;;;;;;20.55;100.00;100387.30;2788356;85;21015;-64
2021/07/09 04:27:53;;;;;;;15.25;11.12;;;;;;;20.60;100.00;100359.20;2788768;85;21512;-64
2021/07/09 04:31:55;;;;;;;13.40;10.25;;;;;;;20.71;100.00;100323.25;2788753;85;21011;-65
2021/07/09 04:35:58;;;;;;;15.58;10.25;;;;;;;20.81;100.00;100323.79;2788397;85;21519;-67
2021/07/09 04:39:59;;;;;;;11.83;9.43;;;;;;;20.88;100.00;100247.66;2788154;85;21034;-69
2021/07/09 04:44:01;;;;;;;12.28;7.75;;;;;;;20.83;100.00;100177.11;2787584;83;21066;-70
2021/07/09 04:48:06;;;;;;;8.18;6.47;;;;;;;20.71;100.00;100078.67;2788005;84;21508;-67
2021/07/09 04:52:08;;;;;;;13.03;8.83;;;;;;;20.53;100.00;99980.04;2788135;84;21528;-68
2021/07/09 04:56:10;;;;;;;7.87;6.37;;;;;;;20.38;100.00;99905.89;2788040;85;21002;-66
2021/07/09 05:00:13;;;;;;;6.12;5.53;;;;;;;20.24;100.00;99847.75;2787956;85;21069;-67
2021/07/09 05:04:16;;;;;;;5.20;4.12;;;;;;;20.18;100.00;99862.06;2790037;83;21019;-66
2021/07/09 05:08:18;;;;;;;5.35;3.50;;;;;;;20.16;100.00;99886.23;2788043;84;21018;-65
2021/07/09 05:12:20;;;;;;;4.05;3.55;;;;;;;20.17;100.00;99909.50;2774568;84;21030;-64
2021/07/09 05:16:22;;;;;;;4.80;2.80;;;;;;;20.22;100.00;99938.08;2789035;83;21600;-66
2021/07/09 05:20:24;;;;;;;3.27;2.83;;;;;;;20.25;100.00;99952.56;2790466;83;21002;-66
2021/07/09 05:24:30;;;;;;;3.00;2.80;;;;;;;20.25;100.00;99949.86;2788630;85;21082;-65
2021/07/09 05:28:34;;;;;;;6.78;4.37;;;;;;;20.29;100.00;99934.92;2789053;85;20995;-67
2021/07/09 05:32:36;;;;;;;4.85;3.80;;;;;;;20.31;100.00;99953.11;2790222;83;21050;-66
2021/07/09 05:36:42;;;;;;;5.37;4.42;;;;;;;20.37;100.00;100017.13;2788959;85;28177;-67
2021/07/09 05:40:45;;;;;;;4.15;3.67;;;;;;;20.40;100.00;100064.00;2787077;83;21014;-67
2021/07/09 05:44:47;;;;;;;5.05;3.92;;;;;;;20.41;100.00;100084.58;2772013;85;21023;-68
2021/07/09 05:48:49;;;;;;;8.53;4.42;;;;;;;20.43;100.00;100098.41;2770225;86;21786;-68
2021/07/09 05:52:57;;;;;;;6.17;3.70;;;;;;;20.48;100.00;100103.55;2770913;84;21004;-67
2021/07/09 05:57:00;;;;;;;6.60;4.70;;;;;;;20.52;100.00;100109.41;2771561;85;21074;-67
2021/07/09 06:01:03;;;;;;;6.22;4.65;;;;;;;20.56;100.00;100112.03;2772540;84;20999;-67
2021/07/09 06:05:10;;;;;;;5.90;5.15;;;;;;;20.61;100.00;100082.55;2772488;85;21031;-68
2021/07/09 06:09:12;;;;;;;8.38;5.60;;;;;;;20.72;100.00;100065.48;2771759;84;21027;-68
2021/07/09 06:13:15;;;;;;;15.25;7.90;;;;;;;20.81;100.00;100048.94;2771000;84;21082;-68
2021/07/09 06:17:19;;;;;;;10.72;6.72;;;;;;;21.02;100.00;100040.91;2770677;85;21826;-66
2021/07/09 06:21:22;;;;;;;7.90;6.08;;;;;;;21.11;100.00;100066.23;2770259;84;21508;-68
2021/07/09 06:25:25;;;;;;;7.20;5.62;;;;;;;21.26;100.00;100076.93;2771572;85;21091;-68
2021/07/09 06:29:30;;;;;;;6.97;6.25;;;;;;;21.41;100.00;100074.56;2769959;86;20990;-66
2021/07/09 06:33:34;;;;;;;;;;;;;;;21.63;100.00;100082.04;2773187;84;21023;-67
2021/07/09 06:37:38;;;;;;;15.68;8.40;;;;;;;21.94;100.00;100083.40;2772004;85;20125;-65
2021/07/09 06:41:40;;;;;;;9.88;8.08;;;;;;;22.23;100.00;100098.11;2771571;83;21106;-67
2021/07/09 06:45:42;;;;;;;9.33;7.55;;;;;;;22.35;100.00;100114.05;2738162;86;21028;-66
2021/07/09 06:49:45;;;;;;;9.23;6.83;;;;;;;22.30;100.00;100127.39;2770061;86;21051;-66
2021/07/09 06:53:51;;;;;;;10.63;6.15;;;;;;;22.19;100.00;100128.84;2771238;84;21058;-65
2021/07/09 06:57:59;;;;;;;19.87;17.95;;;;;;;22.11;100.00;100081.11;2771881;84;21031;-66
2021/07/09 07:02:04;;;;;;;6.37;5.65;;;;;;;21.98;100.00;100049.95;2772286;84;21039;-65
2021/07/09 07:06:10;;;;;;;11.75;5.95;;;;;;;21.96;100.00;100024.95;2770686;86;21067;-64
2021/07/09 07:10:16;;;;;;;8.65;7.08;;;;;;;22.01;100.00;100001.33;2773107;84;21545;-67
2021/07/09 07:15:25;;;;;;;8.05;6.55;;;;;;;22.10;100.00;99994.13;2770070;85;20987;-65
2021/07/09 07:19:32;;;;;;;12.95;7.40;;;;;;;22.14;100.00;100032.98;2771631;85;21003;-66
2021/07/09 07:24:10;;;;;;;7.62;6.70;;;;;;;22.21;100.00;100058.22;2773646;84;21002;-64
2021/07/09 07:28:15;;;;;;;8.33;5.10;;;;;;;22.19;100.00;100050.79;2774480;85;21018;-64
2021/07/09 07:32:22;;;;;;;7.47;5.55;;;;;;;22.24;100.00;100084.88;2773188;84;21035;-64
2021/07/09 07:36:57;;;;;;;7.58;4.87;;;;;;;22.22;100.00;100123.54;2772136;85;21509;-65
2021/07/09 07:41:32;;;;;;;7.97;6.13;;;;;;;22.15;100.00;100164.66;2773148;84;20975;-67
2021/07/09 07:46:13;;;;;;;9.48;7.35;;;;;;;22.01;100.00;100157.03;2746472;85;21023;-63
2021/07/09 07:50:17;;;;;;;10.65;6.42;;;;;;;22.01;100.00;100148.41;2748238;83;21014;-65
2021/07/09 07:54:56;;;;;;;13.55;7.28;;;;;;;22.09;100.00;100141.94;2791076;85;21003;-64
2021/07/09 07:58:59;;;;;;;14.03;7.10;;;;;;;22.17;100.00;100136.34;2773694;83;21002;-65
2021/07/09 08:03:04;;;;;;;13.15;6.12;;;;;;;22.35;100.00;100136.26;2804907;83;21054;-63
2021/07/09 08:07:43;;;;;;;10.50;7.28;;;;;;;22.50;100.00;100142.85;2792104;83;20999;-67
2021/07/09 08:11:46;;;;;;;10.00;6.22;;;;;;;22.61;100.00;100125.13;2796571;83;21015;-67
2021/07/09 08:15:49;;;;;;;14.60;7.55;;;;;;;22.68;100.00;100149.84;2791106;83;21093;-64
2021/07/09 08:19:52;;;;;;;10.95;5.55;;;;;;;22.66;100.00;100127.53;2789922;85;21014;-64
2021/07/09 08:23:56;;;;;;;7.33;5.92;;;;;;;22.66;100.00;100134.81;2790820;83;21062;-64
2021/07/09 08:28:04;;;;;;;8.10;5.28;;;;;;;22.59;100.00;100128.03;2792265;85;21006;-65
2021/07/09 08:32:08;;;;;;;6.83;6.12;;;;;;;22.70;100.00;100123.03;2791596;83;20990;-66
2021/07/09 08:36:13;;;;;;;5.73;3.93;;;;;;;22.79;100.00;100128.53;2791414;84;21066;-66
2021/07/09 08:40:15;;;;;;;6.67;4.58;;;;;;;22.90;100.00;100127.91;2790039;83;21015;-67
2021/07/09 08:44:17;;;;;;;10.23;5.03;;;;;;;23.06;100.00;100136.11;2790511;84;20983;-65
2021/07/09 08:48:21;;;;;;;4.10;3.70;;;;;;;23.21;100.00;100123.67;2792224;85;21014;-67
2021/07/09 08:52:23;;;;;;;12.90;8.43;;;;;;;23.12;100.00;100123.58;2790058;83;21038;-67
2021/07/09 08:56:27;;;;;;;9.05;5.50;;;;;;;23.09;100.00;100111.30;2792270;85;21010;-68
2021/07/09 09:00:42;;;;;;;4.70;3.25;;;;;;;23.11;100.00;100100.21;2791095;83;21047;-65
2021/07/09 09:04:49;;;;;;;23.67;13.55;;;;;;;23.12;100.00;100108.66;2789505;85;21043;-68
2021/07/09 09:08:52;;;;;;;56.00;27.95;;;;;;;23.23;100.00;100138.36;2791097;85;21520;-69
2021/07/09 09:12:59;;;;;;;46.83;29.18;;;;;;;23.11;97.95;100125.98;2790697;83;21030;-68
2021/07/09 09:17:26;;;;;;;26.50;16.93;;;;;;;23.10;99.46;100143.30;2790651;84;21030;-68
2021/07/09 09:21:28;;;;;;;10.38;8.60;;;;;;;23.02;99.62;100151.69;2785193;83;20998;-70
2021/07/09 09:25:32;;;;;;;8.13;4.95;;;;;;;23.00;100.00;100139.67;2790484;83;21042;-69
2021/07/09 09:29:36;;;;;;;11.88;4.92;;;;;;;23.09;100.00;100137.57;2792190;85;21050;-70
2021/07/09 09:33:41;;;;;;;8.00;4.33;;;;;;;23.27;100.00;100138.81;2791999;83;21638;-73
2021/07/09 09:37:54;;;;;;;6.20;3.67;;;;;;;23.46;100.00;100138.41;2790831;85;21300;-70
2021/07/09 09:42:08;;;;;;;28.50;13.80;;;;;;;23.71;100.00;100158.06;2790311;83;21007;-71
2021/07/09 09:46:11;;;;;;;11.30;4.25;;;;;;;23.81;98.75;100173.35;2802361;84;21552;-75
2021/07/09 09:50:18;;;;;;;9.43;3.83;;;;;;;23.83;98.59;100183.47;2805820;83;21034;-72
2021/07/09 09:54:26;;;;;;;17.95;4.85;;;;;;;23.78;98.33;100181.42;2805766;84;20971;-75
2021/07/09 09:58:30;;;;;;;8.00;4.35;;;;;;;23.72;98.35;100178.20;2805022;83;21061;-71
2021/07/09 10:02:36;;;;;;;9.60;4.90;;;;;;;23.57;97.58;100177.62;2806110;83;20986;-74
2021/07/09 10:06:45;;;;;;;5.62;3.45;;;;;;;23.45;97.51;100181.02;2806753;83;22191;-74
2021/07/09 10:10:50;;;;;;;5.75;2.35;;;;;;;23.42;98.73;100172.47;2804539;83;21475;-72
2021/07/09 10:14:56;;;;;;;34.92;19.30;;;;;;;23.33;98.52;100170.51;2805506;84;21058;-70
2021/07/09 10:19:02;;;;;;;11.15;4.67;;;;;;;23.33;97.14;100159.14;2804412;84;21010;-71
2021/07/09 10:23:09;;;;;;;27.17;14.78;;;;;;;23.38;98.27;100174.77;2805672;83;21527;-69
2021/07/09 10:27:20;;;;;;;14.28;8.35;;;;;;;23.50;98.36;100179.85;2804469;83;21022;-71
2021/07/09 10:31:41;;;;;;;17.40;6.90;;;;;;;23.64;97.67;100185.24;2806981;83;21073;-70
2021/07/09 10:35:43;;;;;;;15.80;8.60;;;;;;;23.77;97.13;100171.58;2806138;83;21070;-68
2021/07/09 10:39:50;;;;;;;13.08;8.50;;;;;;;24.00;96.99;100150.38;2806138;83;21580;-68
2021/07/09 10:44:18;;;;;;;7.92;5.00;;;;;;;24.14;95.49;100144.36;2795362;84;21066;-69
2021/07/09 10:48:20;;;;;;;7.05;4.50;;;;;;;24.18;95.04;100127.95;2775293;83;21089;-68
2021/07/09 10:52:52;;;;;;;5.42;1.70;;;;;;;24.52;97.76;100132.58;2791317;84;21082;-69
2021/07/09 10:57:22;;;;;;;4.78;2.12;;;;;;;24.83;94.16;100132.23;2746539;86;21337;-68
2021/07/09 11:01:31;;;;;;;4.15;1.57;;;;;;;25.13;92.71;100142.37;2753538;83;21038;-68
2021/07/09 11:05:57;;;;;;;7.23;3.50;;;;;;;25.50;93.66;100138.30;2787346;83;21070;-68
2021/07/09 11:09:59;;;;;;;8.58;2.98;;;;;;;25.81;91.34;100127.43;2775316;85;21038;-68
2021/07/09 11:14:07;;;;;;;6.42;2.45;;;;;;;26.02;89.99;100109.74;2793147;83;21141;-68
2021/07/09 11:18:13;;;;;;;12.58;3.10;;;;;;;26.19;88.19;100109.10;2789077;83;20995;-67
2021/07/09 11:22:14;;;;;;;9.55;2.67;;;;;;;26.29;89.75;100110.70;2778909;83;21046;-67
2021/07/09 11:26:16;;;;;;;7.78;2.33;;;;;;;26.33;87.92;100111.89;2790922;83;21485;-68
2021/07/09 11:30:17;;;;;;;7.42;2.08;;;;;;;26.39;87.87;100112.85;2800496;83;21070;-67
2021/07/09 11:34:23;;;;;;;7.22;2.55;;;;;;;26.32;84.43;100104.77;2793391;83;21018;-67
2021/07/09 11:38:36;;;;;;;;;;;;;;;26.44;87.31;100099.36;2795967;83;21022;-66
2021/07/09 11:42:41;;;;;;;6.92;2.95;;;;;;;26.58;85.55;100094.50;2806010;83;20222;-66
2021/07/09 11:46:51;;;;;;;6.12;2.58;;;;;;;26.71;85.53;100093.42;2830353;84;21081;-65
2021/07/09 11:50:53;;;;;;;5.37;2.15;;;;;;;26.78;85.64;100097.40;2831312;84;21030;-66
2021/07/09 11:55:08;;;;;;;6.03;1.82;;;;;;;26.65;84.15;100094.39;2830758;83;21082;-66
2021/07/09 11:59:15;;;;;;;3.53;1.77;;;;;;;26.52;83.86;100099.00;2831311;84;21022;-65
2021/07/09 12:03:19;;;;;;;3.12;1.32;;;;;;;26.21;85.13;100097.43;2831146;84;20998;-65
2021/07/09 12:07:38;;;;;;;6.62;2.42;;;;;;;26.12;86.28;100106.97;2805525;84;21019;-66
2021/07/09 12:11:45;;;;;;;3.92;1.90;;;;;;;26.13;87.08;100107.26;2746231;86;21039;-65
2021/07/09 12:15:48;;;;;;;4.42;2.10;;;;;;;26.09;87.75;100109.09;2719097;86;21102;-66
2021/07/09 12:20:01;;;;;;;4.40;1.90;;;;;;;26.09;85.03;100102.83;2685492;88;21049;-66
2021/07/09 12:24:05;;;;;;;6.55;1.92;;;;;;;26.17;86.28;100103.88;2675854;88;21013;-67
2021/07/09 12:28:10;;;;;;;5.75;2.47;;;;;;;26.13;87.85;100084.09;2705014;88;21077;-68
2021/07/09 12:32:12;;;;;;;8.80;2.90;;;;;;;25.96;88.51;100072.53;2700612;88;21581;-67
2021/07/09 12:36:14;;;;;;;4.05;1.80;;;;;;;25.87;88.01;100062.50;2701090;88;21059;-66
2021/07/09 12:40:21;;;;;;;5.65;1.67;;;;;;;25.78;88.39;100057.92;2672042;88;21006;-68
2021/07/09 12:44:22;;;;;;;7.45;2.55;;;;;;;25.77;88.24;100043.16;2659112;88;21094;-67
2021/07/09 12:48:41;;;;;;;6.95;2.00;;;;;;;25.79;87.83;100036.42;2686614;86;21030;-67
2021/07/09 12:52:43;;;;;;;3.37;1.90;;;;;;;25.89;88.22;100038.58;2701487;87;21045;-66
2021/07/09 12:56:49;;;;;;;2.77;1.57;;;;;;;25.99;88.01;100039.37;2701134;86;21013;-67
2021/07/09 13:00:57;;;;;;;8.35;2.70;;;;;;;26.05;87.54;100036.24;2701944;86;21827;-68
2021/07/09 13:04:59;;;;;;;3.52;2.52;;;;;;;26.10;87.56;100039.89;2693982;86;21096;-65
2021/07/09 13:09:20;;;;;;;3.55;1.60;;;;;;;26.18;85.41;100029.77;2699854;86;21076;-63
2021/07/09 13:13:23;;;;;;;4.92;2.33;;;;;;;26.40;86.38;100013.63;2701195;87;21071;-62
2021/07/09 13:17:28;;;;;;;4.33;2.37;;;;;;;26.57;86.07;100008.30;2706015;87;21020;-63
2021/07/09 13:21:35;;;;;;;10.45;2.75;;;;;;;26.69;87.55;99993.79;2695412;87;21030;-62
2021/07/09 13:25:37;;;;;;;4.08;2.33;;;;;;;26.88;85.42;99989.86;2694610;87;21063;-63
2021/07/09 13:29:39;;;;;;;3.98;3.25;;;;;;;27.29;85.84;99998.55;2695396;87;21030;-62
2021/07/09 13:33:57;;;;;;;8.10;2.30;;;;;;;27.64;84.17;100005.25;2695520;87;21551;-62
2021/07/09 13:38:00;;;;;;;2.98;1.95;;;;;;;27.79;82.14;100008.78;2694510;87;21144;-62
2021/07/09 13:42:02;;;;;;;7.40;1.90;;;;;;;27.90;80.74;100037.63;2683689;88;20996;-64
2021/07/09 13:46:04;;;;;;;5.97;2.15;;;;;;;27.73;79.76;100051.28;2680232;88;21096;-63
2021/07/09 13:50:08;;;;;;;3.50;2.47;;;;;;;27.56;80.98;100051.27;2679519;87;21115;-63
2021/07/09 13:54:15;;;;;;;10.38;3.62;;;;;;;27.36;81.72;100045.13;2689139;87;21018;-67
2021/07/09 13:58:17;;;;;;;4.37;2.80;;;;;;;27.38;83.36;100031.23;2649590;90;21043;-68
2021/07/09 14:02:19;;;;;;;6.33;2.95;;;;;;;27.39;82.01;100032.89;2748422;86;21035;-68
2021/07/09 14:06:28;;;;;;;6.35;3.02;;;;;;;27.30;82.30;100027.52;2748726;86;20963;-67
2021/07/09 14:10:32;;;;;;;6.50;2.95;;;;;;;27.23;82.78;100010.75;2748705;86;21018;-67
2021/07/09 14:14:40;;;;;;;6.90;2.60;;;;;;;27.23;83.44;100018.94;2748666;85;21054;-67
2021/07/09 14:18:43;;;;;;;6.35;3.15;;;;;;;27.28;83.17;100016.01;2748819;86;20994;-66
2021/07/09 14:22:45;;;;;;;7.47;3.12;;;;;;;27.20;82.61;100033.60;2748737;86;21050;-68
2021/07/09 14:26:47;;;;;;;8.83;3.52;;;;;;;27.11;82.14;100044.63;2748232;86;21025;-67
2021/07/09 14:30:48;;;;;;;5.45;3.65;;;;;;;26.89;82.82;100062.46;2748287;85;20986;-66
2021/07/09 14:34:56;;;;;;;3.52;3.22;;;;;;;26.75;84.73;100059.69;2748162;86;21504;-66
2021/07/09 14:38:58;;;;;;;6.33;4.17;;;;;;;26.62;86.12;100061.59;2748390;86;20999;-66
2021/07/09 14:43:00;;;;;;;6.72;4.20;;;;;;;26.44;87.74;100069.38;2747947;86;21041;-68
2021/07/09 14:47:05;;;;;;;9.25;4.78;;;;;;;26.28;88.72;100069.52;2778424;83;21046;-67
2021/07/09 14:51:07;;;;;;;11.33;5.67;;;;;;;26.19;89.20;100069.58;2790132;85;21109;-71
2021/07/09 14:55:11;;;;;;;9.88;5.60;;;;;;;26.33;90.71;100051.09;2789769;83;21508;-69
2021/07/09 14:59:13;;;;;;;;;;;;;;;26.57;89.46;100021.93;2791141;83;21088;-69
2021/07/09 15:03:15;;;;;;;8.35;4.35;;;;;;;26.78;87.22;100003.28;2788780;83;20109;-70
2021/07/09 15:07:17;;;;;;;7.22;5.20;;;;;;;27.00;86.45;100010.84;2785503;83;21012;-69
2021/07/09 15:11:20;;;;;;;5.55;4.47;;;;;;;27.23;84.88;100004.48;2786479;83;21085;-70
2021/07/09 15:15:22;;;;;;;4.08;3.58;;;;;;;27.48;82.62;99996.46;2789523;83;21607;-69
2021/07/09 15:19:23;;;;;;;4.50;4.00;;;;;;;27.73;82.09;100002.94;2789747;83;20979;-69
2021/07/09 15:23:25;;;;;;;6.37;3.80;;;;;;;27.78;80.76;99993.46;2789309;83;21006;-70
2021/07/09 15:27:27;;;;;;;3.67;3.37;;;;;;;27.68;79.60;99980.98;2790099;83;21010;-70
2021/07/09 15:31:29;;;;;;;4.20;3.80;;;;;;;27.57;79.99;99983.27;2789973;83;21051;-68
2021/07/09 15:35:31;;;;;;;4.60;3.20;;;;;;;27.42;81.16;99983.24;2788650;83;21038;-70
2021/07/09 15:39:33;;;;;;;5.45;4.58;;;;;;;27.44;82.22;99971.53;2790426;83;21067;-70
2021/07/09 15:43:34;;;;;;;4.47;3.37;;;;;;;27.37;81.65;99962.68;2790660;83;21074;-70
2021/07/09 15:47:36;;;;;;;4.08;3.67;;;;;;;27.35;82.92;99957.45;2788867;83;21030;-71
2021/07/09 15:51:38;;;;;;;4.17;2.65;;;;;;;27.46;83.86;99948.90;2790110;83;21527;-68
2021/07/09 15:55:42;;;;;;;2.08;1.75;;;;;;;27.68;80.80;99931.80;2790230;84;21928;-67
2021/07/09 15:59:44;;;;;;;1.60;0.62;;;;;;;27.87;78.54;99939.22;2791705;83;21516;-68
2021/07/09 16:03:46;;;;;;;3.27;1.32;;;;;;;28.05;74.94;99940.84;2791767;83;21062;-66
2021/07/09 16:07:49;;;;;;;4.67;1.22;;;;;;;28.07;72.89;99960.55;2791044;83;21042;-66
2021/07/09 16:11:53;;;;;;;2.15;1.07;;;;;;;27.88;72.40;99968.73;2792143;83;21068;-67
2021/07/09 16:15:55;;;;;;;7.55;2.35;;;;;;;27.59;71.70;99966.09;2790979;83;21078;-69
2021/07/09 16:20:02;;;;;;;4.45;2.20;;;;;;;27.57;77.59;99959.48;2792305;85;21038;-67
2021/07/09 16:24:05;;;;;;;2.47;1.42;;;;;;;27.72;75.58;99951.27;2787598;83;21027;-66
2021/07/09 16:28:07;;;;;;;1.17;1.07;;;;;;;27.87;75.27;99956.98;2786778;83;21062;-67
2021/07/09 16:32:09;;;;;;;3.70;1.32;;;;;;;27.97;73.60;99949.48;2787240;83;21030;-67
2021/07/09 16:36:11;;;;;;;1.17;0.98;;;;;;;28.05;73.49;99946.87;2791124;83;20999;-67
2021/07/09 16:40:14;;;;;;;3.47;0.88;;;;;;;28.07;73.28;99957.81;2792660;85;21086;-66
2021/07/09 16:44:16;;;;;;;2.95;1.10;;;;;;;28.07;72.28;99960.55;2792018;83;21015;-66
2021/07/09 16:48:18;;;;;;;1.82;1.00;;;;;;;28.00;71.99;99960.44;2773538;84;21031;-66
2021/07/09 16:52:21;;;;;;;2.70;2.10;;;;;;;27.83;72.64;99972.23;2791947;84;21075;-67
2021/07/09 16:56:23;;;;;;;3.05;1.22;;;;;;;27.55;72.69;99973.13;2773357;84;21051;-66
2021/07/09 17:00:25;;;;;;;1.82;1.52;;;;;;;27.35;74.12;99977.12;2764242;84;21024;-68
2021/07/09 17:04:27;;;;;;;2.42;1.32;;;;;;;27.23;75.71;99979.36;2771098;84;21010;-67
2021/07/09 17:08:29;;;;;;;4.28;1.50;;;;;;;27.17;76.04;99989.89;2772307;84;21023;-66
2021/07/09 17:12:31;;;;;;;2.12;1.67;;;;;;;27.11;75.28;100003.13;2772220;84;21050;-66
2021/07/09 17:16:33;;;;;;;3.33;1.55;;;;;;;26.96;75.60;100016.50;2772528;84;21288;-66
2021/07/09 17:20:35;;;;;;;0.93;0.40;;;;;;;26.33;71.92;100033.37;2772461;84;21691;-66
2021/07/09 17:24:37;;;;;;;1.17;0.20;;;;;;;25.57;69.76;100033.94;2772078;84;21094;-66
2021/07/09 17:28:39;;;;;;;0.40;0.40;;;;;;;25.02;70.49;100030.23;2771348;84;21055;-67
2021/07/09 17:32:41;;;;;;;0.40;0.40;;;;;;;24.46;70.57;100028.27;2771922;85;20991;-67
2021/07/09 17:36:43;;;;;;;2.50;0.70;;;;;;;24.08;71.84;100035.52;2772428;84;20995;-66
2021/07/09 17:40:45;;;;;;;2.08;0.30;;;;;;;23.78;72.56;100036.14;2771297;84;20979;-67
2021/07/09 17:44:47;;;;;;;6.53;0.62;;;;;;;23.56;73.08;100049.73;2772761;84;21041;-66
2021/07/09 17:48:49;;;;;;;2.45;0.65;;;;;;;23.38;74.07;100048.06;2808626;83;21505;-67
2021/07/09 17:52:51;;;;;;;2.75;0.40;;;;;;;23.32;74.69;100048.94;2786301;84;21063;-67
2021/07/09 17:56:53;;;;;;;2.72;0.57;;;;;;;23.19;75.90;100047.09;2807338;84;21038;-67
2021/07/09 18:00:55;;;;;;;1.00;0.50;;;;;;;23.13;76.07;100045.22;2759184;83;20992;-67
2021/07/09 18:04:56;;;;;;;1.27;0.53;;;;;;;23.01;76.27;100051.02;2742116;86;21070;-66
2021/07/09 18:08:58;;;;;;;5.95;1.40;;;;;;;22.85;76.30;100066.70;2757510;85;21539;-66
2021/07/09 18:13:01;;;;;;;2.62;1.00;;;;;;;22.79;77.44;100064.83;2786749;84;21069;-66
2021/07/09 18:17:03;;;;;;;2.05;0.50;;;;;;;22.67;78.69;100068.20;2795162;82;21026;-66
2021/07/09 18:21:05;;;;;;;1.50;0.60;;;;;;;22.52;78.89;100073.02;2819782;84;21011;-68
2021/07/09 18:25:09;;;;;;;3.95;0.78;;;;;;;22.40;80.72;100079.05;2787406;85;21019;-67
2021/07/09 18:29:11;;;;;;;3.08;1.05;;;;;;;22.21;80.88;100078.53;2787039;85;21003;-68
2021/07/09 18:33:13;;;;;;;6.80;1.75;;;;;;;22.05;80.82;100077.89;2785381;85;21344;-67
2021/07/09 18:37:15;;;;;;;2.05;1.22;;;;;;;22.00;81.76;100083.61;2796321;84;21038;-68
2021/07/09 18:41:20;;;;;;;2.22;0.98;;;;;;;21.90;81.53;100092.13;2826588;84;20998;-69
2021/07/09 18:45:21;;;;;;;3.33;1.07;;;;;;;21.73;82.67;100107.39;2823874;84;21023;-68
2021/07/09 18:49:23;;;;;;;2.17;1.47;;;;;;;21.62;83.50;100120.15;2818064;83;21061;-69
2021/07/09 18:53:25;;;;;;;2.60;1.62;;;;;;;21.57;85.55;100133.43;2792373;83;21038;-69
2021/07/09 18:57:26;;;;;;;3.02;1.45;;;;;;;21.55;87.19;100141.23;2792070;83;21027;-68
2021/07/09 19:01:28;;;;;;;3.45;1.90;;;;;;;21.48;88.30;100141.73;2779570;84;21079;-71